Time;durP1;ratioP1;P1;durP2;ratioP2;P2;SDS_P1;SDS_P2;PMS_P1;PMS_P2;Temp;Humidity;BMP_temperature;BMP_pressure;BME280_temperature;BME280_humidity;BME280_pressure;Samples;Min_cycle;Max_cycle;Signal;HPM_P1;HPM_P2
2022/06/01 00:01:12;;;;;;;16.38;8.13;;;;;;;16.19;100.00;100051.31;5074873;28;20393;-76
2022/06/01 00:03:43;;;;;;;18.95;8.60;;;;;;;16.15;100.00;100036.44;5075003;28;20485;-76
2022/06/01 00:06:12;;;;;;;16.10;7.88;;;;;;;16.16;100.00;100035.44;5074542;28;20049;-72
2022/06/01 00:08:41;;;;;;;15.80;8.27;;;;;;;16.23;100.00;100028.56;5074990;28;20111;-73
2022/06/01 00:11:11;;;;;;;13.10;7.22;;;;;;;16.20;100.00;100028.81;5074651;28;20436;-73
2022/06/01 00:13:40;;;;;;;12.25;7.45;;;;;;;16.18;100.00;100030.78;5074816;28;20102;-73
2022/06/01 00:16:10;;;;;;;14.13;7.47;;;;;;;16.28;100.00;100032.53;5074144;28;20044;-74
2022/06/01 00:18:38;;;;;;;23.58;7.70;;;;;;;16.44;100.00;100026.66;5074644;28;20036;-74
2022/06/01 00:21:08;;;;;;;16.95;8.63;;;;;;;16.46;100.00;100027.38;5074400;28;20048;-73
2022/06/01 00:23:37;;;;;;;17.10;8.85;;;;;;;16.50;100.00;100020.75;5074569;28;20481;-74
2022/06/01 00:26:05;;;;;;;20.33;12.07;;;;;;;16.59;100.00;100019.91;5074326;28;20044;-74
2022/06/01 00:28:33;;;;;;;19.27;11.70;;;;;;;16.45;100.00;100022.97;5073201;28;20075;-74
2022/06/01 00:31:03;;;;;;;19.17;9.43;;;;;;;16.39;100.00;100019.97;5074198;28;20036;-74
2022/06/01 00:33:34;;;;;;;16.60;9.40;;;;;;;16.13;100.00;100012.34;5074337;28;20036;-78
2022/06/01 00:36:03;;;;;;;17.17;10.02;;;;;;;15.96;100.00;100010.28;5074369;28;20044;-79
2022/06/01 00:38:31;;;;;;;19.08;10.02;;;;;;;15.84;100.00;100014.88;5073306;28;20040;-79
2022/06/01 00:41:00;;;;;;;21.73;9.80;;;;;;;15.90;100.00;100011.63;5073077;28;20045;-78
2022/06/01 00:43:45;;;;;;;17.88;9.57;;;;;;;15.89;100.00;100009.09;5074376;28;20056;-79
2022/06/01 00:46:14;;;;;;;20.42;9.20;;;;;;;15.93;100.00;100006.03;5074199;28;20094;-78
2022/06/01 00:48:49;;;;;;;16.40;9.55;;;;;;;15.91;100.00;100015.19;5073142;28;20048;-79
2022/06/01 00:51:22;;;;;;;14.57;9.68;;;;;;;15.91;100.00;100016.03;5074268;28;20119;-78
2022/06/01 00:53:51;;;;;;;;;;;;;;;15.94;100.00;100013.09;5074825;28;20431;-77
2022/06/01 00:56:22;;;;;;;17.92;8.68;;;;;;;15.84;100.00;100009.50;5073760;28;19921;-77
2022/06/01 00:58:55;;;;;;;14.63;9.07;;;;;;;15.78;100.00;100012.69;5074324;28;20131;-78
2022/06/01 01:01:24;;;;;;;15.50;9.45;;;;;;;15.77;100.00;100007.47;5074191;28;20075;-77
2022/06/01 01:03:57;;;;;;;15.27;9.30;;;;;;;15.76;100.00;100013.81;5074062;28;20044;-78
2022/06/01 01:06:26;;;;;;;;;;;;;;;15.72;100.00;100013.22;5074383;28;20127;-78
2022/06/01 01:08:57;;;;;;;14.63;8.10;;;;;;;15.73;100.00;100020.31;5073853;28;19920;-77
2022/06/01 01:11:30;;;;;;;12.20;8.50;;;;;;;15.76;100.00;100011.97;5073984;28;20127;-77
2022/06/01 01:13:59;;;;;;;12.48;8.63;;;;;;;15.83;100.00;100009.63;5072247;28;20055;-78
2022/06/01 01:16:28;;;;;;;13.30;8.52;;;;;;;15.90;100.00;100011.63;5072489;28;20079;-77
2022/06/01 01:18:59;;;;;;;13.05;8.77;;;;;;;15.87;100.00;100021.81;5073640;28;20041;-79
2022/06/01 01:21:40;;;;;;;12.70;8.30;;;;;;;15.77;100.00;100016.38;5074362;28;20405;-77
2022/06/01 01:24:15;;;;;;;13.90;8.55;;;;;;;15.61;100.00;100024.88;5073473;28;20044;-75
2022/06/01 01:26:48;;;;;;;12.20;8.48;;;;;;;15.56;100.00;100021.72;5073647;28;20072;-75
2022/06/01 01:29:32;;;;;;;13.77;8.85;;;;;;;15.51;100.00;100015.00;5073300;28;20538;-75
2022/06/01 01:32:00;;;;;;;;;;;;;;;15.53;100.00;100010.34;5073684;28;20051;-75
2022/06/01 01:34:28;;;;;;;12.50;8.30;;;;;;;15.62;100.00;100006.91;5073247;28;19943;-74
2022/06/01 01:37:04;;;;;;;11.15;8.30;;;;;;;15.51;100.00;100007.78;5073111;28;20153;-76
2022/06/01 01:39:35;;;;;;;12.98;8.05;;;;;;;15.44;100.00;100003.91;5073949;28;20055;-77
2022/06/01 01:42:07;;;;;;;11.05;7.85;;;;;;;15.46;100.00;100002.81;5071997;28;20048;-76
2022/06/01 01:44:41;;;;;;;12.82;7.68;;;;;;;15.57;100.00;100009.13;5073413;28;20055;-75
2022/06/01 01:47:10;;;;;;;16.33;8.35;;;;;;;15.52;100.00;100006.81;5073119;28;20044;-75
2022/06/01 01:49:39;;;;;;;11.23;7.72;;;;;;;15.51;100.00;100006.94;5072923;28;20409;-77
2022/06/01 01:52:10;;;;;;;13.00;8.27;;;;;;;15.49;100.00;100000.84;5073293;28;20049;-77
2022/06/01 01:54:46;;;;;;;11.68;7.78;;;;;;;15.50;100.00;100006.09;5073643;28;20124;-78
2022/06/01 01:57:25;;;;;;;12.05;8.05;;;;;;;15.49;100.00;99995.47;5073181;28;20052;-77
2022/06/01 02:00:14;;;;;;;12.30;8.57;;;;;;;15.53;100.00;99999.59;5073400;28;20036;-76
2022/06/01 02:02:59;;;;;;;11.70;8.05;;;;;;;15.58;100.00;100002.75;5073367;28;20036;-76
2022/06/01 02:08:26;;;;;;;12.55;8.02;;;;;;;15.74;100.00;100006.75;5073009;28;20120;-76
2022/06/01 02:13:51;;;;;;;12.65;8.18;;;;;;;15.84;100.00;99998.75;5073267;28;20041;-76
2022/06/01 02:16:22;;;;;;;10.43;7.75;;;;;;;15.90;100.00;100000.88;5073005;28;20044;-76
2022/06/01 02:18:56;;;;;;;12.35;7.95;;;;;;;16.02;100.00;99999.00;5073078;28;20040;-76
2022/06/01 02:21:27;;;;;;;11.20;7.80;;;;;;;15.91;100.00;99989.13;5072615;28;20041;-77
2022/06/01 02:23:59;;;;;;;11.50;8.10;;;;;;;15.90;100.00;99994.66;5072838;28;20072;-77
2022/06/01 02:26:29;;;;;;;14.83;8.73;;;;;;;15.97;100.00;99990.44;5073055;28;20040;-78
2022/06/01 02:29:03;;;;;;;12.40;8.05;;;;;;;16.01;100.00;99987.34;5073133;28;20446;-77
2022/06/01 02:31:32;;;;;;;11.73;7.95;;;;;;;16.06;100.00;99995.03;5071827;28;20048;-77
2022/06/01 02:34:04;;;;;;;12.30;8.18;;;;;;;16.19;100.00;99997.50;5072857;28;20044;-76
2022/06/01 02:36:33;;;;;;;12.25;7.97;;;;;;;16.33;100.00;99989.09;5072008;28;20059;-74
2022/06/01 02:39:07;;;;;;;13.48;8.90;;;;;;;16.20;100.00;99991.13;5072667;28;20054;-79
2022/06/01 02:44:31;;;;;;;13.73;8.77;;;;;;;16.01;100.00;99994.56;5037049;28;20102;-74
2022/06/01 02:46:59;;;;;;;12.32;9.07;;;;;;;15.96;100.00;99994.97;5072707;28;20097;-74
2022/06/01 02:49:28;;;;;;;14.60;9.32;;;;;;;15.98;100.00;99998.38;5071455;28;20055;-74
2022/06/01 02:51:57;;;;;;;13.15;9.25;;;;;;;15.90;100.00;99998.19;5072726;28;20124;-77
2022/06/01 02:54:25;;;;;;;14.82;9.00;;;;;;;15.88;100.00;99986.72;5072418;28;20119;-78
2022/06/01 02:56:53;;;;;;;15.60;9.05;;;;;;;15.82;100.00;99984.53;5072221;28;20131;-77
2022/06/01 02:59:23;;;;;;;13.10;8.70;;;;;;;15.78;100.00;99983.13;5072441;28;20078;-77
2022/06/01 03:01:53;;;;;;;12.70;8.30;;;;;;;15.76;100.00;99982.41;5074605;28;20402;-76
2022/06/01 03:04:24;;;;;;;16.35;9.18;;;;;;;15.72;100.00;99980.94;5075852;28;20048;-75
2022/06/01 03:07:00;;;;;;;16.50;9.48;;;;;;;15.74;100.00;99979.84;5075149;28;20041;-77
2022/06/01 03:09:35;;;;;;;14.93;8.85;;;;;;;15.72;100.00;99968.34;5075599;28;20072;-74
2022/06/01 03:12:05;;;;;;;15.23;9.13;;;;;;;15.76;100.00;99970.81;5075835;28;20127;-79
2022/06/01 03:14:34;;;;;;;20.15;9.35;;;;;;;15.73;100.00;99972.78;5075952;28;20051;-74
2022/06/01 03:17:07;;;;;;;17.05;10.27;;;;;;;15.77;100.00;99972.50;5075441;28;20401;-81
2022/06/01 03:19:36;;;;;;;16.75;9.73;;;;;;;15.83;100.00;99967.47;5075629;28;20123;-74
2022/06/01 03:22:04;;;;;;;18.88;10.77;;;;;;;15.86;100.00;99964.50;5074578;28;20052;-74
2022/06/01 03:24:35;;;;;;;18.83;10.75;;;;;;;15.87;100.00;99963.50;5075486;28;20544;-74
2022/06/01 03:27:03;;;;;;;24.98;12.52;;;;;;;15.91;100.00;99974.84;5075681;28;20036;-75
2022/06/01 03:29:31;;;;;;;21.50;11.45;;;;;;;15.98;100.00;99971.47;5075665;28;20079;-75
2022/06/01 03:31:59;;;;;;;23.15;11.27;;;;;;;15.97;100.00;99968.94;5075393;28;20049;-74
2022/06/01 03:34:30;;;;;;;21.38;12.75;;;;;;;16.00;100.00;99965.97;5075361;28;20397;-75
2022/06/01 03:36:59;;;;;;;25.05;14.10;;;;;;;16.14;100.00;99975.53;5074321;28;20135;-75
2022/06/01 03:39:27;;;;;;;22.13;12.90;;;;;;;16.13;100.00;99995.38;5075307;28;20091;-74
2022/06/01 03:41:59;;;;;;;24.55;14.40;;;;;;;16.14;100.00;100000.59;5075554;28;20059;-74
2022/06/01 03:47:13;;;;;;;30.25;17.20;;;;;;;16.28;100.00;99994.00;5075219;28;20041;-75
2022/06/01 03:49:43;;;;;;;27.70;16.95;;;;;;;16.35;100.00;100005.94;5075257;28;20048;-75
2022/06/01 03:52:11;;;;;;;26.70;15.88;;;;;;;16.22;100.00;100053.75;5075024;28;20041;-74
2022/06/01 03:54:40;;;;;;;19.10;11.43;;;;;;;16.16;100.00;100090.13;5074961;28;20044;-74
2022/06/01 03:57:12;;;;;;;21.83;11.05;;;;;;;15.77;100.00;100080.91;5074563;28;20061;-76
2022/06/01 03:59:40;;;;;;;14.20;8.80;;;;;;;15.81;100.00;100060.84;5075097;28;20041;-79
2022/06/01 04:02:09;;;;;;;18.90;10.77;;;;;;;15.67;100.00;100079.97;5074568;28;20277;-78
2022/06/01 04:04:37;;;;;;;16.63;10.60;;;;;;;15.54;100.00;100068.50;5073936;28;20044;-78
2022/06/01 04:07:07;;;;;;;19.23;10.68;;;;;;;15.57;100.00;100074.50;5073688;28;20075;-79
2022/06/01 04:09:35;;;;;;;17.65;10.50;;;;;;;15.68;100.00;100074.47;5074824;28;20045;-78
2022/06/01 04:12:04;;;;;;;16.17;10.38;;;;;;;15.77;100.00;100074.69;5074550;28;20072;-79
2022/06/01 04:14:32;;;;;;;14.75;9.68;;;;;;;15.91;100.00;100067.13;5074974;28;20076;-75
2022/06/01 04:17:01;;;;;;;14.63;9.98;;;;;;;15.89;100.00;100052.97;5074676;28;20040;-75
2022/06/01 04:19:29;;;;;;;17.48;10.18;;;;;;;15.78;100.00;100066.47;5073148;28;20044;-75
2022/06/01 04:21:57;;;;;;;18.15;11.43;;;;;;;15.80;100.00;100058.28;5074661;28;20041;-75
2022/06/01 04:24:29;;;;;;;16.10;10.57;;;;;;;15.94;100.00;100045.38;5073049;28;20047;-79
2022/06/01 04:26:57;;;;;;;18.65;11.98;;;;;;;16.11;100.00;100045.75;5074678;28;20044;-79
2022/06/01 04:29:26;;;;;;;16.73;10.43;;;;;;;16.13;100.00;100044.66;5074139;28;20037;-73
2022/06/01 04:32:00;;;;;;;20.42;11.95;;;;;;;16.12;100.00;100058.25;5073225;28;20076;-73
2022/06/01 04:34:29;;;;;;;23.92;12.30;;;;;;;16.12;100.00;100064.47;5074187;28;20441;-75
2022/06/01 04:36:57;;;;;;;20.00;11.82;;;;;;;16.26;100.00;100060.56;5074301;28;20486;-72
2022/06/01 04:39:27;;;;;;;17.25;11.68;;;;;;;16.34;100.00;100063.47;5073820;28;20131;-73
2022/06/01 04:41:55;;;;;;;20.67;12.75;;;;;;;16.57;100.00;100070.34;5074192;28;20047;-80
2022/06/01 04:44:24;;;;;;;20.88;12.73;;;;;;;16.86;100.00;100064.25;5072666;28;20049;-81
2022/06/01 04:46:52;;;;;;;20.23;13.07;;;;;;;17.94;100.00;100062.41;5074181;28;20455;-79
2022/06/01 04:49:20;;;;;;;22.95;12.43;;;;;;;19.40;100.00;100068.97;5073947;28;20450;-75
2022/06/01 04:51:49;;;;;;;18.65;11.48;;;;;;;20.48;100.00;100070.56;5074273;28;20041;-75
2022/06/01 04:54:17;;;;;;;22.65;14.20;;;;;;;20.21;100.00;100065.28;5073689;28;20454;-75
2022/06/01 04:56:47;;;;;;;28.88;18.05;;;;;;;19.35;100.00;100073.13;5073563;28;20565;-74
2022/06/01 04:59:17;;;;;;;26.83;17.85;;;;;;;19.03;100.00;100066.34;5073532;28;20040;-76
2022/06/01 05:01:45;;;;;;;31.52;21.13;;;;;;;18.82;100.00;100058.50;5073800;28;20044;-75
2022/06/01 05:04:15;;;;;;;32.05;21.58;;;;;;;18.54;100.00;100046.78;5073394;28;20044;-74
2022/06/01 05:06:44;;;;;;;31.98;23.35;;;;;;;18.42;100.00;100033.59;5073739;28;20042;-81
2022/06/01 05:09:12;;;;;;;33.72;23.10;;;;;;;18.54;100.00;100035.97;5073123;28;20040;-78
2022/06/01 05:11:41;;;;;;;38.35;25.70;;;;;;;18.90;100.00;100036.09;5072697;28;20064;-78
2022/06/01 05:14:10;;;;;;;39.35;24.75;;;;;;;19.59;100.00;100045.47;5073266;28;20044;-78
2022/06/01 05:16:38;;;;;;;37.55;24.35;;;;;;;20.74;100.00;100038.00;5073593;28;20131;-76
2022/06/01 05:19:09;;;;;;;36.83;25.55;;;;;;;21.55;100.00;100037.44;5073199;28;20040;-77
2022/06/01 05:21:37;;;;;;;38.78;25.40;;;;;;;21.97;100.00;100037.25;5072176;28;20053;-77
2022/06/01 05:24:06;;;;;;;35.55;24.67;;;;;;;22.05;100.00;100044.56;5072997;28;20048;-73
2022/06/01 05:26:34;;;;;;;40.15;26.00;;;;;;;20.86;100.00;100047.56;5088759;28;20076;-72
2022/06/01 05:29:03;;;;;;;36.72;25.45;;;;;;;20.09;100.00;100047.59;5071691;28;20140;-73
2022/06/01 05:31:32;;;;;;;39.75;25.95;;;;;;;19.63;100.00;100063.13;5071466;28;20144;-72
2022/06/01 05:34:00;;;;;;;38.10;26.13;;;;;;;19.19;100.00;100065.66;5072758;28;20043;-74
2022/06/01 05:36:29;;;;;;;41.92;28.15;;;;;;;18.98;100.00;100062.38;5071545;28;20063;-74
2022/06/01 05:38:58;;;;;;;41.50;27.58;;;;;;;18.83;100.00;100076.41;5071707;28;20056;-74
2022/06/01 05:41:26;;;;;;;44.25;27.50;;;;;;;18.70;100.00;100086.69;5072393;28;20071;-73
2022/06/01 05:43:55;;;;;;;42.40;27.70;;;;;;;18.55;100.00;100090.84;5072904;28;20078;-73
2022/06/01 05:46:24;;;;;;;48.25;29.35;;;;;;;18.39;100.00;100090.59;5072574;28;20044;-75
2022/06/01 05:48:53;;;;;;;44.78;29.83;;;;;;;18.29;100.00;100079.84;5072963;28;20123;-74
2022/06/01 05:51:23;;;;;;;41.70;27.90;;;;;;;18.26;100.00;100089.09;5072643;28;20045;-75
2022/06/01 05:53:51;;;;;;;44.78;28.67;;;;;;;18.02;100.00;100096.78;5072997;28;20033;-74
2022/06/01 05:56:19;;;;;;;46.13;29.73;;;;;;;18.11;100.00;100101.31;5072640;28;20094;-74
2022/06/01 05:58:50;;;;;;;48.35;29.15;;;;;;;18.33;100.00;100093.88;5071630;28;20048;-73
2022/06/01 06:01:22;;;;;;;50.60;30.30;;;;;;;18.49;100.00;100094.97;5072452;28;20082;-73
2022/06/01 06:03:50;;;;;;;48.33;30.47;;;;;;;18.58;100.00;100091.41;5072936;28;20098;-71
2022/06/01 06:06:22;;;;;;;48.15;29.23;;;;;;;18.79;100.00;100102.00;5072605;28;20040;-72
2022/06/01 06:08:53;;;;;;;45.70;27.92;;;;;;;18.82;100.00;100096.34;5072761;28;20533;-72
2022/06/01 06:11:25;;;;;;;44.42;28.08;;;;;;;18.75;100.00;100095.22;5072806;28;20048;-72
2022/06/01 06:13:54;;;;;;;45.58;29.08;;;;;;;18.84;100.00;100099.72;5073042;28;20072;-71
2022/06/01 06:16:23;;;;;;;44.28;27.67;;;;;;;18.95;100.00;100092.44;5088085;28;20049;-70
2022/06/01 06:18:55;;;;;;;41.72;27.63;;;;;;;19.08;100.00;100103.72;5072852;28;20040;-72
2022/06/01 06:21:26;;;;;;;41.15;26.75;;;;;;;19.01;100.00;100105.31;5072254;28;20043;-71
2022/06/01 06:23:59;;;;;;;44.20;26.73;;;;;;;19.26;100.00;100112.75;5072730;28;20045;-71
2022/06/01 06:26:28;;;;;;;43.10;26.10;;;;;;;19.21;100.00;100112.34;5072625;28;20041;-70
2022/06/01 06:28:56;;;;;;;41.67;26.75;;;;;;;19.16;100.00;100109.25;5073284;28;20367;-70
2022/06/01 06:31:24;;;;;;;37.17;26.05;;;;;;;19.24;100.00;100112.03;5072133;28;20448;-72
2022/06/01 06:33:53;;;;;;;36.10;23.90;;;;;;;19.23;100.00;100110.34;5072622;28;20397;-73
2022/06/01 06:36:21;;;;;;;36.20;25.05;;;;;;;19.25;100.00;100113.75;5073711;28;20490;-73
2022/06/01 06:38:51;;;;;;;38.72;24.10;;;;;;;19.31;100.00;100101.47;5076374;28;20044;-73
2022/06/01 06:41:21;;;;;;;35.75;23.98;;;;;;;19.25;100.00;100113.75;5075974;28;20075;-75
2022/06/01 06:43:49;;;;;;;36.97;23.38;;;;;;;19.17;100.00;100121.75;5076290;28;20405;-74
2022/06/01 06:46:20;;;;;;;30.48;21.73;;;;;;;18.61;100.00;100119.97;5076201;28;20079;-70
2022/06/01 06:48:49;;;;;;;33.85;21.05;;;;;;;18.74;100.00;100123.22;5076412;28;20045;-70
2022/06/01 06:51:19;;;;;;;33.50;22.60;;;;;;;18.71;100.00;100125.34;5075967;28;20047;-70
2022/06/01 06:53:48;;;;;;;34.80;22.88;;;;;;;18.38;100.00;100129.41;5076185;28;20083;-72
2022/06/01 06:56:20;;;;;;;32.58;23.17;;;;;;;18.43;100.00;100133.41;5075854;28;20083;-73
2022/06/01 06:58:49;;;;;;;27.37;19.07;;;;;;;18.25;100.00;100138.69;5076309;28;20157;-74
2022/06/01 07:01:18;;;;;;;28.55;18.85;;;;;;;18.16;100.00;100146.78;5075769;28;20380;-76
2022/06/01 07:03:46;;;;;;;28.60;19.35;;;;;;;18.31;100.00;100151.59;5075651;28;20040;-75
2022/06/01 07:06:21;;;;;;;25.20;17.33;;;;;;;18.59;100.00;100154.38;5075915;28;20043;-76
2022/06/01 07:08:52;;;;;;;29.15;17.98;;;;;;;18.93;100.00;100159.28;5076042;28;20044;-75
2022/06/01 07:11:26;;;;;;;28.00;16.85;;;;;;;19.12;100.00;100153.81;5075692;28;20139;-77
2022/06/01 07:13:56;;;;;;;25.00;16.85;;;;;;;19.34;100.00;100156.09;5075653;28;20071;-76
2022/06/01 07:16:26;;;;;;;24.25;17.55;;;;;;;20.02;100.00;100155.66;5075466;28;20127;-76
2022/06/01 07:18:58;;;;;;;21.38;16.13;;;;;;;20.00;100.00;100155.84;5075874;28;20043;-76
2022/06/01 07:21:28;;;;;;;22.73;14.80;;;;;;;20.10;100.00;100163.03;5075690;28;20491;-76
2022/06/01 07:24:00;;;;;;;19.80;12.85;;;;;;;19.97;100.00;100158.81;5074464;28;20064;-76
2022/06/01 07:26:31;;;;;;;19.33;13.20;;;;;;;20.13;100.00;100163.53;5074157;28;20497;-75
2022/06/01 07:29:00;;;;;;;19.27;12.93;;;;;;;19.99;100.00;100164.13;5074486;28;20106;-75
2022/06/01 07:31:28;;;;;;;17.63;11.57;;;;;;;20.66;100.00;100159.09;5075358;28;20123;-77
2022/06/01 07:33:58;;;;;;;18.77;12.15;;;;;;;20.58;100.00;100163.44;5075815;28;20131;-77
2022/06/01 07:36:28;;;;;;;15.35;10.70;;;;;;;20.83;100.00;100166.28;5075346;28;20045;-77
2022/06/01 07:44:32;;;;;;;17.83;11.85;;;;;;;21.08;100.00;100160.00;5073856;28;20132;-75
2022/06/01 07:47:01;;;;;;;18.88;12.75;;;;;;;20.80;100.00;100158.50;5074716;28;20059;-76
2022/06/01 07:49:49;;;;;;;17.70;10.98;;;;;;;20.48;100.00;100168.09;5075284;28;20041;-77
2022/06/01 07:52:37;;;;;;;15.00;10.25;;;;;;;20.66;100.00;100168.06;5074826;28;20041;-77
2022/06/01 07:55:06;;;;;;;12.98;8.88;;;;;;;20.53;100.00;100173.88;5075197;28;20389;-77
2022/06/01 07:57:36;;;;;;;14.15;8.95;;;;;;;20.46;100.00;100170.13;5074587;28;20525;-77
2022/06/01 08:00:05;;;;;;;14.10;9.82;;;;;;;20.53;100.00;100176.59;5075114;28;20040;-77
2022/06/01 08:02:34;;;;;;;14.35;9.32;;;;;;;20.60;100.00;100170.56;5074569;28;20044;-77
2022/06/01 08:05:02;;;;;;;14.43;10.07;;;;;;;20.67;100.00;100166.22;5074975;28;20379;-77
2022/06/01 08:07:30;;;;;;;17.40;10.40;;;;;;;21.04;100.00;100168.66;5074697;28;20067;-78
2022/06/01 08:09:58;;;;;;;14.25;9.10;;;;;;;21.02;100.00;100176.91;5074966;28;20075;-77
2022/06/01 08:15:14;;;;;;;12.88;8.95;;;;;;;21.03;100.00;100180.47;5074616;28;20041;-76
2022/06/01 08:17:49;;;;;;;13.75;9.20;;;;;;;21.53;100.00;100169.72;5074289;28;20041;-77
2022/06/01 08:20:18;;;;;;;12.88;8.23;;;;;;;21.62;100.00;100182.31;5074327;28;20496;-77
2022/06/01 08:22:46;;;;;;;9.95;7.18;;;;;;;21.36;100.00;100178.81;5073080;28;20140;-77
2022/06/01 08:25:17;;;;;;;11.27;7.57;;;;;;;21.29;100.00;100189.47;5073362;28;20048;-77
2022/06/01 08:27:46;;;;;;;11.23;7.28;;;;;;;21.19;100.00;100177.84;5074075;28;20135;-75
2022/06/01 08:30:17;;;;;;;11.00;6.80;;;;;;;21.70;100.00;100182.31;5074177;28;20401;-74
2022/06/01 08:32:46;;;;;;;10.60;6.22;;;;;;;21.31;100.00;100189.28;5072840;28;20048;-76
2022/06/01 08:35:16;;;;;;;10.30;6.25;;;;;;;21.08;100.00;100187.13;5074299;28;20050;-77
2022/06/01 08:37:47;;;;;;;9.90;6.23;;;;;;;21.28;100.00;100195.06;5074202;28;20047;-77
2022/06/01 08:40:19;;;;;;;9.15;6.07;;;;;;;21.39;100.00;100202.91;5073810;28;20055;-77
2022/06/01 08:42:55;;;;;;;9.73;5.88;;;;;;;21.27;100.00;100201.50;5074014;28;20124;-77
2022/06/01 08:45:27;;;;;;;8.13;5.53;;;;;;;21.46;100.00;100201.25;5074224;28;20040;-77
2022/06/01 08:47:59;;;;;;;8.68;5.82;;;;;;;21.48;100.00;100199.19;5089973;28;20397;-77
2022/06/01 08:50:29;;;;;;;8.93;5.75;;;;;;;21.94;100.00;100195.09;5073644;28;20041;-78
2022/06/01 08:53:01;;;;;;;9.27;5.65;;;;;;;22.01;100.00;100206.16;5074128;28;20123;-76
2022/06/01 08:55:39;;;;;;;9.27;6.10;;;;;;;22.12;100.00;100203.16;5073771;28;20068;-77
2022/06/01 08:58:14;;;;;;;8.88;4.80;;;;;;;22.22;100.00;100186.69;5072771;28;20053;-76
2022/06/01 09:00:52;;;;;;;7.72;5.28;;;;;;;22.41;100.00;100197.22;5073559;28;20045;-76
2022/06/01 09:03:28;;;;;;;9.68;5.57;;;;;;;22.49;100.00;100194.50;5073965;28;20056;-76
2022/06/01 09:06:09;;;;;;;8.80;5.30;;;;;;;22.50;100.00;100200.78;5074103;28;20063;-76
2022/06/01 09:08:47;;;;;;;7.95;5.32;;;;;;;22.25;100.00;100202.63;5073493;28;20371;-76
2022/06/01 09:11:21;;;;;;;8.18;5.50;;;;;;;22.06;100.00;100202.91;5072116;28;20053;-76
2022/06/01 09:14:03;;;;;;;9.18;5.47;;;;;;;22.15;100.00;100197.38;5073275;28;20563;-76
2022/06/01 09:16:37;;;;;;;7.82;5.30;;;;;;;22.32;100.00;100205.53;5072173;28;20049;-77
2022/06/01 09:19:09;;;;;;;9.70;5.22;;;;;;;22.71;100.00;100211.13;5073662;28;20447;-76
2022/06/01 09:24:28;;;;;;;7.20;4.97;;;;;;;22.78;100.00;100206.72;5073616;28;20369;-76
2022/06/01 09:27:01;;;;;;;5.88;3.78;;;;;;;22.41;100.00;100218.13;5073662;28;20075;-76
2022/06/01 09:29:33;;;;;;;6.35;3.50;;;;;;;22.29;100.00;100204.00;5073340;28;20040;-77
2022/06/01 09:32:06;;;;;;;5.00;3.45;;;;;;;22.25;100.00;100219.78;5073189;28;20052;-76
2022/06/01 09:34:39;;;;;;;5.55;3.70;;;;;;;22.27;100.00;100215.03;5073168;28;20044;-77
2022/06/01 09:37:13;;;;;;;5.63;3.30;;;;;;;22.23;100.00;100215.56;5073558;28;20041;-76
2022/06/01 09:39:51;;;;;;;4.80;3.25;;;;;;;22.26;100.00;100215.19;5073263;28;20047;-76
2022/06/01 09:42:25;;;;;;;6.07;3.40;;;;;;;22.34;100.00;100208.94;5073136;28;20402;-76
2022/06/01 09:44:57;;;;;;;8.13;3.95;;;;;;;22.74;100.00;100208.06;5073191;28;20041;-76
2022/06/01 09:47:36;;;;;;;4.15;2.80;;;;;;;22.51;100.00;100218.78;5072038;28;20127;-76
2022/06/01 09:50:20;;;;;;;6.50;3.30;;;;;;;22.18;100.00;100216.03;5071975;28;20044;-76
2022/06/01 09:52:49;;;;;;;7.05;3.85;;;;;;;22.49;100.00;100218.97;5072932;28;20040;-76
2022/06/01 09:55:21;;;;;;;4.90;3.60;;;;;;;22.47;100.00;100217.41;5073191;28;20043;-76
2022/06/01 09:58:09;;;;;;;6.72;3.72;;;;;;;22.41;100.00;100208.09;5072954;28;20056;-76
2022/06/01 10:06:25;;;;;;;4.90;3.08;;;;;;;22.79;100.00;100211.97;5073128;28;20094;-76
2022/06/01 10:09:04;;;;;;;6.47;3.40;;;;;;;22.78;100.00;100210.28;5072579;28;20045;-76
2022/06/01 10:11:36;;;;;;;5.80;3.60;;;;;;;22.59;100.00;100205.22;5075360;28;20052;-80
2022/06/01 10:14:14;;;;;;;6.25;4.15;;;;;;;22.78;100.00;100207.56;5077214;28;20068;-77
2022/06/01 10:17:07;;;;;;;7.30;3.50;;;;;;;23.14;100.00;100207.16;5075582;28;20056;-76
2022/06/01 10:19:41;;;;;;;9.05;3.70;;;;;;;22.94;100.00;100203.13;5076530;28;20517;-77
2022/06/01 10:22:16;;;;;;;4.97;3.20;;;;;;;22.88;100.00;100220.16;5077065;28;20043;-76
2022/06/01 10:24:49;;;;;;;5.82;3.40;;;;;;;23.02;100.00;100211.28;5076722;28;20051;-76
2022/06/01 10:27:21;;;;;;;;;;;;;;;22.97;100.00;100209.09;5075948;28;20447;-76
2022/06/01 10:29:56;;;;;;;6.85;3.47;;;;;;;22.79;100.00;100211.13;5076517;28;19924;-76
2022/06/01 10:32:32;;;;;;;5.22;3.17;;;;;;;22.86;100.00;100217.59;5076674;28;20481;-76
2022/06/01 10:35:12;;;;;;;5.00;3.47;;;;;;;22.77;100.00;100202.28;5076504;28;20086;-76
2022/06/01 10:37:52;;;;;;;7.13;3.50;;;;;;;23.15;100.00;100206.13;5075209;28;20056;-76
2022/06/01 10:40:28;;;;;;;6.00;3.40;;;;;;;23.36;100.00;100209.16;5076865;28;20055;-76
2022/06/01 10:43:17;;;;;;;6.97;3.45;;;;;;;23.62;100.00;100210.75;5076461;28;20123;-77
2022/06/01 10:45:50;;;;;;;4.72;2.97;;;;;;;23.75;100.00;100207.47;5075234;28;20045;-75
2022/06/01 10:48:28;;;;;;;4.60;2.90;;;;;;;23.75;100.00;100208.31;5076442;28;20059;-76
2022/06/01 10:51:07;;;;;;;6.43;3.33;;;;;;;23.72;100.00;100214.09;5076342;28;20044;-76
2022/06/01 10:53:52;;;;;;;5.35;3.20;;;;;;;23.41;100.00;100211.31;5076217;28;20075;-75
2022/06/01 10:56:23;;;;;;;4.93;3.00;;;;;;;23.36;100.00;100202.84;5076389;28;20519;-75
2022/06/01 10:58:56;;;;;;;5.75;3.13;;;;;;;23.43;100.00;100210.13;5074889;28;20052;-76
2022/06/01 11:01:40;;;;;;;4.80;2.65;;;;;;;23.20;100.00;100209.19;5076254;28;20041;-76
2022/06/01 11:04:58;;;;;;;6.03;2.75;;;;;;;22.97;100.00;100208.22;5075183;28;20408;-76
2022/06/01 11:07:45;;;;;;;4.90;2.70;;;;;;;23.28;100.00;100214.63;5076229;28;20072;-76
2022/06/01 11:10:22;;;;;;;4.50;2.60;;;;;;;23.47;100.00;100209.78;5076334;28;20123;-76
2022/06/01 11:13:03;;;;;;;3.55;2.55;;;;;;;23.43;100.00;100204.66;5075802;28;20049;-75
2022/06/01 11:15:43;;;;;;;5.68;2.50;;;;;;;23.56;100.00;100208.72;5076125;28;20044;-76
2022/06/01 11:18:27;;;;;;;3.90;2.20;;;;;;;23.85;100.00;100213.53;5076012;28;20051;-78
2022/06/01 11:21:05;;;;;;;5.22;2.40;;;;;;;24.01;100.00;100216.16;5075065;28;20045;-77
2022/06/01 11:23:45;;;;;;;3.60;2.15;;;;;;;23.92;100.00;100218.06;5075689;28;20037;-75
2022/06/01 11:26:27;;;;;;;3.60;1.95;;;;;;;24.04;100.00;100212.25;5075588;28;20547;-76
2022/06/01 11:29:11;;;;;;;3.35;1.90;;;;;;;24.30;61.20;100190.91;5075597;28;20044;-78
2022/06/01 11:31:41;;;;;;;3.10;1.63;;;;;;;24.32;52.62;100210.72;5075365;28;20042;-78
2022/06/01 11:34:14;;;;;;;3.10;1.70;;;;;;;24.43;48.96;100203.97;5074290;28;20096;-77
2022/06/01 11:36:45;;;;;;;;;;;;;;;24.15;47.52;100222.72;5075822;28;20040;-77
2022/06/01 11:39:28;;;;;;;4.85;1.65;;;;;;;23.95;49.33;100204.13;5075727;28;19924;-77
2022/06/01 11:42:03;;;;;;;3.55;2.03;;;;;;;23.95;49.00;100206.84;5075130;28;20040;-77
2022/06/01 11:44:34;;;;;;;4.53;1.80;;;;;;;23.87;48.42;100201.44;5075106;28;20509;-78
2022/06/01 11:47:09;;;;;;;2.22;1.50;;;;;;;23.77;49.27;100195.38;5074905;28;20043;-78
2022/06/01 11:49:41;;;;;;;3.67;2.03;;;;;;;24.10;48.45;100211.50;5075443;28;20042;-77
2022/06/01 11:52:30;;;;;;;3.25;1.95;;;;;;;23.96;47.78;100208.53;5075445;28;20398;-78
2022/06/01 11:55:22;;;;;;;4.45;2.03;;;;;;;24.30;49.47;100203.69;5074862;28;20044;-77
2022/06/01 11:57:56;;;;;;;2.70;1.80;;;;;;;24.25;49.43;100205.09;5074755;28;20132;-78
2022/06/01 12:00:34;;;;;;;4.00;1.83;;;;;;;24.16;47.57;100210.78;5074999;28;20060;-78
2022/06/01 12:03:37;;;;;;;4.60;1.80;;;;;;;24.08;47.59;100206.22;5074614;28;20413;-78